Terminal Aerodrome Forecast
Issued by NWS Grand Rapids, MI

Home | Current Version | Previous Version | Text Only | Print | Product List | Glossary On
Versions: 1 2 3 4 5 6 7 8 9 10 11 12
000
FTUS43 KGRR 282349
TAFGRR
TAF
KGRR 282349Z 2900/2924 13007KT P6SM BKN250
     FM290300 15005KT P6SM SCT150 BKN250
     FM291200 19008KT P6SM VCSH OVC050
     FM291500 24011KT P6SM OVC040
     FM292000 26014G22KT P6SM SKC=

USA.gov is the U.S. government's official web portal to all federal, state and local government web resources and services.